Mehdi Jahanbakhsh

Chefscout - Sepahan
22 Jun 2028
Donnerstag
Verarbeitung

Persönlichkeit

Anpassungsfähigkeit (13) Ehrgeiz (10) Kontroverse (2) Loyalität (3) Druck (14) Professionalität (7) Fairness (20) Temperament (17)

Profil

Trainerstil Demokratisch
Lizenz Nationale B
Entschlossenheit 8
Menschenführung 6
Motivation 11
Disziplin 10
Arbeitszufriedenheit
100%
Ermüdung
0%
Rolle Chefscout
Gehalt 60.3K p/W
Vertrag 14.03.2029

Leistung

Verhalten Gut
Trainingseffektivität
34%
Spielerentwicklung
45%
Verletzungsprävention
25%
Taktische Umsetzung
20%

Letzte Ereignisse

Nahm an einer Scouting-Besprechung teil jetzt
Empfahl ein Transferziel jetzt
Empfahl ein Transferziel jetzt
Empfahl ein Transferziel jetzt
Empfahl ein Transferziel jetzt
Empfahl ein Transferziel jetzt
Empfahl ein Transferziel 7T her
Legte dem Vorstand ein Dossier vor 7T her

Aktuell beobachtet

69
Spieler Verein Status Fähigkeit Vertrauen Beobachtet Zuletzt beobachtet Letzte Stimme
Elijah Adebayo Luton Town Aktiv 139 / 128 40% 1 12.06.2028 -
Lebo Mothiba Mamelodi Sundowns Verhandlung 126 / 116 40% 1 12.06.2028 -
Jorthy Mokio Ajax Aktiv 137 / 134 40% 1 03.06.2028 -
David Atanga Hearts of Oak Verloren 115 / 115 66% 1 01.06.2028 Befürworten
Thulani Tau Persepolis Aktiv 107 / 107 68% 1 01.06.2028 Befürworten
Siyabonga Mothiba Sharjah Aktiv 109 / 110 68% 1 01.06.2028 Befürworten
Jaydee Canvot Crystal Palace Aktiv 143 / 154 40% 1 01.06.2028 -
Mattia Puzone Siracusa Verhandlung 110 / 100 40% 1 01.06.2028 -
Daniel Banjaqui Benfica Aktiv 122 / 124 40% 1 17.01.2028 -
Dato Shengelia Carabobo Aktiv 94 / 95 89% 1 01.01.2028 Befürworten
Nduduzo Sibiya Argentinos Juniors Aktiv 111 / 111 66% 1 01.01.2028 Befürworten
Gustavo Blanco Leschuk Padideh Verloren 103 / 103 66% 1 01.01.2028 Befürworten
Davit Volkovi Groningen Aktiv 116 / 116 66% 1 01.01.2028 Befürworten
Peter Shalulile FC Lorient Aktiv 128 / 128 67% 1 01.01.2028 Befürworten
Maren Kefas Plateau United Aktiv 95 / 95 40% 1 01.01.2028 -
Fahad Al-Rashidi Al-Taawoun Aktiv 114 / 114 30% 1 / 1m 01.09.2027 -
Gustavo Lozano Zamora Aktiv 90 / 106 40% 1 31.08.2027 -
Nupe Godstime Bayelsa United Aktiv 81 / 93 40% 1 31.08.2027 -
Román Barrios Patronato Aktiv 100 / 104 40% 1 27.08.2027 -
Alexis Rodríguez Portuguesa Aktiv 102 / 90 40% 1 27.08.2027 -
Daniel Awuni Aduana Stars Aktiv 95 / 96 40% 2 24.08.2027 -
Ishmael Addo Heart of Lions Aktiv 91 / 95 40% 1 24.08.2027 -
Nhlanhla Gasa FC Diarra Aktiv 75 / 81 40% 1 23.08.2027 -
Mattia Della Rocca Vicenza Aktiv 93 / 102 40% 3 20.08.2027 -
Jayden Addai Como Aktiv 134 / 135 40% 2 19.08.2027 -
Manu Rodríguez Gijón Aktiv 94 / 110 40% 1 16.08.2027 -
Hassan Beja AFC Leopards Aktiv 87 / 90 40% 3 15.08.2027 -
David Martínez Los Angeles Football Club Aktiv 122 / 126 40% 1 15.08.2027 -
Wisdom Udom Bendel Insurance Aktiv 82 / 91 40% 2 12.08.2027 -
Mattia Rutigliano Pro Vercelli Aktiv 96 / 118 40% 1 12.08.2027 -
Jens Hjertø-Dahl Hull City Aktiv 131 / 128 40% 1 09.08.2027 -
Oscar Schwartau Norwich City Aktiv 127 / 139 40% 1 08.08.2027 -
Elias Baum Eintracht Frankfurt Aktiv 126 / 143 40% 1 08.08.2027 -
Caleb Yirenkyi Coventry City Aktiv 155 / 136 40% 1 07.08.2027 -
Jeffrey Annan Hasaacas Aktiv 91 / 87 40% 1 06.08.2027 -
Asanele Bonani Chippa United Aktiv 106 / 101 40% 3 04.08.2027 -
André Miranda Porto Aktiv 117 / 105 40% 1 01.08.2027 -
Aaron Drinan Swindon Town Aktiv 118 / 96 40% 1 29.07.2027 -
Duckens Nazon Esteghlal Aktiv 120 / 117 62% 1 26.07.2027 Befürworten
Rahman Jafari Zob Ahan Aktiv 106 / 118 40% 1 25.07.2027 -
Dennis Konney US Bougouba Aktiv 75 / 86 40% 3 22.07.2027 -
Alexis Fretes Libertad Aktiv 122 / 106 40% 1 20.07.2027 -
Giacomo Zecca Torres Aktiv 112 / 109 40% 1 19.07.2027 -
Joseph Namatane FC Metz Aktiv 83 / 100 40% 1 17.07.2027 -
Hamdi Labidi Olympique Akbou Aktiv 120 / 96 40% 1 09.07.2027 -
Calum Agius Crewe Alexandra Aktiv 100 / 91 40% 1 08.07.2027 -
Ilja Safronov Rotor Aktiv 100 / 100 40% 1 03.07.2027 -
Richard Figueroa Deportivo Lara Aktiv 95 / 110 40% 1 02.07.2027 -
Dmitry Tsypchenko Torpedo Moscow Aktiv 102 / 117 40% 1 02.07.2027 -
Calum Kavanagh Oldham Athletic Aktiv 97 / 98 40% 1 26.06.2027 -
Nikita Posmashny Chaika Aktiv 85 / 83 40% 1 15.06.2027 -
Luca Maiorano Pro Patria Aktiv 105 / 96 40% 1 15.06.2027 -
Leonel Jaime River Plate Aktiv 126 / 113 40% 1 12.06.2027 -
Juan David Obando Volna Aktiv 77 / 88 40% 3 09.06.2027 -
Martim Cunha Porto Aktiv 93 / 104 40% 1 04.06.2027 -
Roman Kopylov Tver Aktiv 70 / 81 40% 1 01.06.2027 -
Son Ludogorets Aktiv 118 / 121 40% 2 31.01.2027 -
Milan Gajić CSKA Moscow Aktiv 120 / 131 40% 1 30.01.2027 -
Max Meyer APOEL Aktiv 132 / 116 40% 1 28.01.2027 -
Renato Tapia Al Wasl Aktiv 147 / 134 40% 1 27.01.2027 -
Iuri Medeiros Ujpest Aktiv 119 / 128 40% 1 25.01.2027 Mehr Infos nötig
Jason Al-Fayha Aktiv 135 / 120 40% 1 24.01.2027 -
Caio Lucas Al Ain Aktiv 122 / 126 40% 1 24.01.2027 -
Marko Grujić Levski Aktiv 113 / 125 40% 1 21.01.2027 -
Gaëtan Laborde Al-Diriyah Aktiv 144 / 133 40% 1 21.01.2027 -
Jobson Al Dhafra Aktiv 116 / 127 40% 1 20.01.2027 -
Cheveyo Tsawa Club Brugge Aktiv 106 / 124 40% 1 29.08.2026 -
Lucas Cornejo Estudiantes Aktiv 106 / 119 40% 1 28.08.2026 -
Matías Arias Vélez Aktiv 88 / 120 40% 1 28.08.2026 -